Time;durP1;ratioP1;P1;durP2;ratioP2;P2;SDS_P1;SDS_P2;PMS_P1;PMS_P2;Temp;Humidity;BMP_temperature;BMP_pressure;BME280_temperature;BME280_humidity;BME280_pressure;Samples;Min_cycle;Max_cycle;Signal;HPM_P1;HPM_P2
2023/01/13 00:02:22;;;;;;;16.58;4.07;;;9.70;99.90;;;;;;4997609;27;94127;-32
2023/01/13 00:04:47;;;;;;;23.08;4.20;;;9.70;99.90;;;;;;4997008;27;94818;-35
2023/01/13 00:07:13;;;;;;;14.43;4.78;;;9.70;99.90;;;;;;4997662;27;92218;-32
2023/01/13 00:09:39;;;;;;;22.88;5.20;;;9.60;99.90;;;;;;5003188;28;95694;-33
2023/01/13 00:12:05;;;;;;;12.55;4.82;;;9.50;99.90;;;;;;5003494;28;95178;-33
2023/01/13 00:14:35;;;;;;;11.90;4.45;;;9.50;99.90;;;;;;5002630;27;93087;-33
2023/01/13 00:17:02;;;;;;;18.48;5.20;;;9.50;99.90;;;;;;5010020;27;94781;-33
2023/01/13 00:19:27;;;;;;;18.48;4.18;;;9.40;99.90;;;;;;4996006;27;94503;-35
2023/01/13 00:21:53;;;;;;;17.98;5.78;;;9.30;99.90;;;;;;4996677;28;94658;-33
2023/01/13 00:24:19;;;;;;;11.52;4.65;;;9.40;99.90;;;;;;4997303;27;92866;-33
2023/01/13 00:26:44;;;;;;;24.45;5.90;;;9.30;99.90;;;;;;4996889;27;93962;-33
2023/01/13 00:29:10;;;;;;;20.60;6.03;;;9.30;99.90;;;;;;4997108;27;94010;-32
2023/01/13 00:31:35;;;;;;;19.80;5.90;;;9.30;99.90;;;;;;4996192;27;94440;-36
2023/01/13 00:34:01;;;;;;;19.52;6.95;;;9.30;99.90;;;;;;4996100;27;94244;-33
2023/01/13 00:36:28;;;;;;;16.90;5.90;;;9.20;99.90;;;;;;4996299;28;94740;-33
2023/01/13 00:38:53;;;;;;;31.10;7.22;;;9.20;99.90;;;;;;4996285;27;96082;-33
2023/01/13 00:41:21;;;;;;;19.55;6.43;;;9.10;99.90;;;;;;4996829;27;93430;-33
2023/01/13 00:43:47;;;;;;;30.08;7.65;;;9.10;99.90;;;;;;5010184;28;92698;-34
2023/01/13 00:46:16;;;;;;;32.13;7.22;;;9.10;99.90;;;;;;4996457;27;94319;-33
2023/01/13 00:48:42;;;;;;;;;;;9.00;99.90;;;;;;4996876;27;93422;-32
2023/01/13 00:51:11;;;;;;;31.38;7.30;;;9.00;99.90;;;;;;4998907;27;93918;-32
2023/01/13 00:53:39;;;;;;;25.15;6.72;;;8.90;99.90;;;;;;4997058;27;93313;-33
2023/01/13 00:56:08;;;;;;;27.97;7.87;;;8.80;99.90;;;;;;4995861;28;92760;-33
2023/01/13 00:58:34;;;;;;;32.97;8.10;;;8.80;99.90;;;;;;4997988;28;95720;-32
2023/01/13 01:01:09;;;;;;;29.55;8.07;;;8.80;99.90;;;;;;4999974;27;95408;-32
2023/01/13 01:03:35;;;;;;;27.83;7.78;;;8.80;99.90;;;;;;4999843;27;95355;-33
2023/01/13 01:06:05;;;;;;;20.00;6.72;;;8.70;99.90;;;;;;4999998;27;93709;-35
2023/01/13 01:08:31;;;;;;;17.65;7.85;;;8.70;99.90;;;;;;4999148;27;94808;-33
2023/01/13 01:11:01;;;;;;;32.60;7.88;;;8.70;99.90;;;;;;4999424;27;94701;-33
2023/01/13 01:13:27;;;;;;;23.77;7.72;;;8.60;99.90;;;;;;4999936;27;92820;-32
2023/01/13 01:15:53;;;;;;;27.90;6.53;;;8.60;99.90;;;;;;5011754;28;91923;-33
2023/01/13 01:18:19;;;;;;;14.32;6.00;;;8.60;99.90;;;;;;5000685;27;95064;-34
2023/01/13 01:20:44;;;;;;;28.25;6.05;;;8.60;99.90;;;;;;4999014;28;94629;-34
2023/01/13 01:23:10;;;;;;;21.35;6.15;;;8.60;99.90;;;;;;4998879;27;94132;-35
2023/01/13 01:25:35;;;;;;;26.52;7.30;;;8.60;99.90;;;;;;4999715;28;93614;-36
2023/01/13 01:28:01;;;;;;;25.92;6.28;;;8.60;99.90;;;;;;4998896;27;95037;-33
2023/01/13 01:30:26;;;;;;;13.80;5.82;;;8.60;99.90;;;;;;4999977;27;94610;-35
2023/01/13 01:32:52;;;;;;;24.38;6.60;;;8.70;99.90;;;;;;4999141;27;92654;-34
2023/01/13 01:35:18;;;;;;;22.63;5.80;;;8.60;99.90;;;;;;4999271;27;94687;-34
2023/01/13 01:37:43;;;;;;;26.73;6.60;;;8.70;99.90;;;;;;4998700;27;94913;-34
2023/01/13 01:40:09;;;;;;;23.75;6.72;;;8.80;99.90;;;;;;4980930;28;94594;-34
2023/01/13 01:45:24;;;;;;;34.15;6.80;;;8.80;99.90;;;;;;5004736;28;93461;-35
2023/01/13 01:47:55;;;;;;;22.30;6.65;;;8.80;99.90;;;;;;5008573;27;95346;-32
2023/01/13 01:50:22;;;;;;;23.42;7.88;;;8.80;99.90;;;;;;4999058;27;95520;-33
2023/01/13 01:53:01;;;;;;;24.50;5.80;;;8.80;99.90;;;;;;5007319;28;94190;-33
2023/01/13 01:55:29;;;;;;;23.15;6.25;;;8.70;99.90;;;;;;5002569;27;94826;-34
2023/01/13 01:57:57;;;;;;;;;;;8.80;99.90;;;;;;4998221;28;94927;-34
2023/01/13 02:00:25;;;;;;;32.00;7.60;;;8.80;99.90;;;;;;5000342;27;93990;-33
2023/01/13 02:02:51;;;;;;;25.40;6.78;;;8.70;99.90;;;;;;4999460;27;92251;-32
2023/01/13 02:05:17;;;;;;;25.40;6.45;;;8.70;99.90;;;;;;5014685;27;91849;-35
2023/01/13 02:07:46;;;;;;;25.63;7.35;;;8.70;99.90;;;;;;5018449;27;95164;-33
2023/01/13 02:10:14;;;;;;;25.15;7.25;;;8.70;99.90;;;;;;5015739;27;94424;-35
2023/01/13 02:12:43;;;;;;;20.85;7.53;;;8.60;99.90;;;;;;4999947;28;94638;-35
2023/01/13 02:15:21;;;;;;;17.67;7.00;;;8.60;99.90;;;;;;5010484;28;92217;-34
2023/01/13 02:18:17;;;;;;;29.73;6.80;;;8.60;99.90;;;;;;4998097;27;94678;-32
2023/01/13 02:20:52;;;;;;;32.20;6.85;;;8.60;99.90;;;;;;4997985;28;95300;-33
2023/01/13 02:26:57;;;;;;;20.95;6.63;;;8.50;99.90;;;;;;4998524;28;93794;-34
2023/01/13 02:32:49;;;;;;;21.90;7.28;;;8.60;99.90;;;;;;4998806;28;94558;-34
2023/01/13 02:35:21;;;;;;;28.40;7.10;;;8.50;99.90;;;;;;4998774;28;94124;-35
2023/01/13 02:37:48;;;;;;;27.30;7.85;;;8.40;99.90;;;;;;4997246;27;93231;-36
2023/01/13 02:40:28;;;;;;;19.65;7.07;;;8.50;99.90;;;;;;5012292;27;96012;-32
2023/01/13 02:46:07;;;;;;;31.85;7.47;;;8.40;99.90;;;;;;4998462;27;92746;-34
2023/01/13 02:48:36;;;;;;;26.75;8.15;;;8.40;99.90;;;;;;4997924;27;92840;-33
2023/01/13 02:51:10;;;;;;;25.70;6.90;;;8.30;99.90;;;;;;4998208;27;94608;-33
2023/01/13 02:53:45;;;;;;;19.92;7.03;;;8.40;99.90;;;;;;4999728;27;95226;-35
2023/01/13 02:56:13;;;;;;;34.38;7.05;;;8.20;99.90;;;;;;5009177;27;94395;-34
2023/01/13 02:58:41;;;;;;;33.25;7.20;;;8.20;99.90;;;;;;4998057;27;92631;-34
2023/01/13 03:01:07;;;;;;;29.33;7.43;;;8.20;99.90;;;;;;4997821;28;94444;-33
2023/01/13 03:03:32;;;;;;;25.35;6.88;;;8.20;99.90;;;;;;4997459;28;94394;-32
2023/01/13 03:06:19;;;;;;;24.05;7.15;;;8.20;99.90;;;;;;4997746;27;92974;-33
2023/01/13 03:09:02;;;;;;;23.77;7.85;;;8.10;99.90;;;;;;4998592;28;94663;-34
2023/01/13 03:11:37;;;;;;;31.08;8.07;;;8.10;99.90;;;;;;5008466;27;94306;-34
2023/01/13 03:14:15;;;;;;;25.20;7.55;;;8.10;99.90;;;;;;5013349;27;94319;-32
2023/01/13 03:17:10;;;;;;;19.05;7.60;;;8.00;99.90;;;;;;5009078;28;95154;-35
2023/01/13 03:19:59;;;;;;;27.58;8.52;;;8.00;99.90;;;;;;4996832;27;94251;-35
2023/01/13 03:22:55;;;;;;;37.58;7.97;;;8.10;99.90;;;;;;4997463;27;94776;-34
2023/01/13 03:25:35;;;;;;;20.42;6.97;;;8.00;99.90;;;;;;4997874;28;94762;-36
2023/01/13 03:28:24;;;;;;;23.63;7.90;;;8.10;99.90;;;;;;4997383;28;93653;-33
2023/01/13 03:30:55;;;;;;;21.02;6.32;;;8.10;99.90;;;;;;4997422;27;93134;-33
2023/01/13 03:33:28;;;;;;;31.67;8.07;;;8.10;99.90;;;;;;4996979;27;95471;-33
2023/01/13 03:36:02;;;;;;;21.52;5.95;;;8.00;99.90;;;;;;4997021;27;95014;-32
2023/01/13 03:38:32;;;;;;;20.02;6.50;;;8.00;99.90;;;;;;4996926;28;93826;-33
2023/01/13 03:41:04;;;;;;;20.27;7.40;;;8.10;99.90;;;;;;4996977;27;94799;-33
2023/01/13 03:46:58;;;;;;;28.92;7.53;;;8.20;99.90;;;;;;4996534;28;94286;-34
2023/01/13 03:49:42;;;;;;;21.00;7.60;;;8.20;99.90;;;;;;4997179;28;93271;-34
2023/01/13 03:52:13;;;;;;;20.05;6.95;;;8.30;99.90;;;;;;4997690;27;93230;-35
2023/01/13 03:54:47;;;;;;;24.70;6.63;;;8.30;99.90;;;;;;4996559;27;95042;-33
2023/01/13 03:57:15;;;;;;;28.05;7.25;;;8.30;99.90;;;;;;4997358;27;94519;-31
2023/01/13 03:59:44;;;;;;;23.75;7.65;;;8.30;99.90;;;;;;4996455;27;95449;-35
2023/01/13 04:02:35;;;;;;;26.50;6.72;;;8.30;99.90;;;;;;4996578;27;92760;-34
2023/01/13 04:05:03;;;;;;;34.33;8.40;;;8.30;99.90;;;;;;4996929;28;94699;-31
2023/01/13 04:07:37;;;;;;;31.70;7.30;;;8.30;99.90;;;;;;4996720;28;94672;-35
2023/01/13 04:10:07;;;;;;;19.95;6.72;;;8.30;99.90;;;;;;4997071;27;94689;-35
2023/01/13 04:13:01;;;;;;;27.58;7.75;;;8.30;99.90;;;;;;5000249;27;93514;-35
2023/01/13 04:15:44;;;;;;;35.15;8.23;;;8.30;99.90;;;;;;5004290;28;96082;-32
2023/01/13 04:18:26;;;;;;;21.48;6.50;;;8.20;99.90;;;;;;4997263;27;94400;-33
2023/01/13 04:20:54;;;;;;;21.50;6.78;;;8.10;99.90;;;;;;4996732;27;92317;-35
2023/01/13 04:23:21;;;;;;;15.82;4.93;;;8.10;99.90;;;;;;4996452;28;92714;-32
2023/01/13 04:25:47;;;;;;;30.52;8.00;;;8.20;99.90;;;;;;4995926;27;96406;-34
2023/01/13 04:28:14;;;;;;;37.05;8.18;;;8.20;99.90;;;;;;4996659;27;95316;-34
2023/01/13 04:30:40;;;;;;;34.13;7.78;;;8.30;99.90;;;;;;4996997;27;93699;-34
2023/01/13 04:33:06;;;;;;;38.67;8.65;;;8.20;99.90;;;;;;4996674;27;92865;-35
2023/01/13 04:35:33;;;;;;;26.02;7.10;;;8.30;99.90;;;;;;4996378;27;94629;-34
2023/01/13 04:38:07;;;;;;;53.22;9.05;;;8.30;99.90;;;;;;4996072;28;93512;-32
2023/01/13 04:40:33;;;;;;;28.77;7.28;;;8.30;99.90;;;;;;4996826;27;93422;-34
2023/01/13 04:42:59;;;;;;;25.27;7.65;;;8.20;99.90;;;;;;4996593;27;91345;-34
2023/01/13 04:45:24;;;;;;;32.08;7.25;;;8.30;99.90;;;;;;4996346;27;93870;-34
2023/01/13 04:47:50;;;;;;;33.53;7.97;;;8.30;99.90;;;;;;4995543;28;95381;-33
2023/01/13 04:50:18;;;;;;;33.10;7.88;;;8.30;99.90;;;;;;4996117;27;94008;-33
2023/01/13 04:52:45;;;;;;;36.15;10.20;;;8.30;99.90;;;;;;4996559;27;92959;-32
2023/01/13 04:55:11;;;;;;;19.42;8.23;;;8.20;99.90;;;;;;4996116;27;94831;-33
2023/01/13 04:57:37;;;;;;;29.05;8.23;;;8.20;99.90;;;;;;4995942;27;94740;-32
2023/01/13 05:00:07;;;;;;;19.38;7.20;;;8.20;99.90;;;;;;4996022;28;93175;-32
2023/01/13 05:02:33;;;;;;;38.42;6.85;;;8.20;99.90;;;;;;4996980;27;93632;-33
2023/01/13 05:04:59;;;;;;;25.42;6.50;;;8.10;99.90;;;;;;5009916;28;94651;-33
2023/01/13 05:07:24;;;;;;;24.15;7.68;;;8.10;99.90;;;;;;4996426;27;93907;-33
2023/01/13 05:09:50;;;;;;;37.55;8.02;;;8.20;99.90;;;;;;4996070;27;93387;-33
2023/01/13 05:17:45;;;;;;;25.25;7.30;;;8.10;99.90;;;;;;4995053;28;95268;-33
2023/01/13 05:20:12;;;;;;;27.40;7.38;;;8.10;99.90;;;;;;5006069;28;93762;-33
2023/01/13 05:25:23;;;;;;;37.53;8.90;;;8.10;99.90;;;;;;5006039;28;94921;-33
2023/01/13 05:27:51;;;;;;;28.77;9.38;;;8.00;99.90;;;;;;4998871;27;94646;-33
2023/01/13 05:30:17;;;;;;;28.15;8.13;;;8.10;99.90;;;;;;4996996;27;94416;-33
2023/01/13 05:32:43;;;;;;;21.58;9.18;;;8.10;99.90;;;;;;4996051;28;91775;-34
2023/01/13 05:35:09;;;;;;;21.25;6.43;;;8.10;99.90;;;;;;4995444;28;94766;-32
2023/01/13 05:37:35;;;;;;;27.08;7.15;;;8.00;99.90;;;;;;4995928;28;94700;-32
2023/01/13 05:45:30;;;;;;;25.05;6.75;;;8.00;99.90;;;;;;4998240;28;94568;-35
2023/01/13 05:47:56;;;;;;;21.83;8.15;;;8.10;99.90;;;;;;4998262;27;94116;-35
2023/01/13 05:50:22;;;;;;;16.75;6.93;;;8.10;99.90;;;;;;4999763;27;93500;-34
2023/01/13 05:52:49;;;;;;;20.60;7.63;;;8.10;99.90;;;;;;4998344;27;93997;-33
2023/01/13 05:55:14;;;;;;;23.83;6.38;;;8.20;99.90;;;;;;4998818;27;94699;-34
2023/01/13 05:57:40;;;;;;;19.70;6.72;;;8.10;99.90;;;;;;4998663;27;96222;-32
2023/01/13 06:00:07;;;;;;;23.35;5.60;;;8.10;99.90;;;;;;4998814;27;93446;-33
2023/01/13 06:02:32;;;;;;;16.65;5.82;;;8.10;99.90;;;;;;4998967;27;93491;-35
2023/01/13 06:04:58;;;;;;;17.02;5.90;;;8.10;99.90;;;;;;4997454;27;95674;-35
2023/01/13 06:07:23;;;;;;;19.55;5.32;;;8.10;99.90;;;;;;4998444;27;95536;-34
2023/01/13 06:09:49;;;;;;;23.50;6.30;;;8.10;99.90;;;;;;4998788;28;94490;-33
2023/01/13 06:12:14;;;;;;;19.75;5.75;;;8.10;99.90;;;;;;4998406;27;94103;-33
2023/01/13 06:14:40;;;;;;;13.07;5.95;;;8.10;99.90;;;;;;5012575;28;94205;-33
2023/01/13 06:17:11;;;;;;;14.07;6.18;;;8.10;99.90;;;;;;5011443;28;93210;-32
2023/01/13 06:19:37;;;;;;;15.48;5.75;;;8.10;99.90;;;;;;4998958;27;93971;-34
2023/01/13 06:22:20;;;;;;;15.23;5.72;;;8.20;99.90;;;;;;5009706;28;93943;-35
2023/01/13 06:24:47;;;;;;;19.13;6.53;;;8.20;99.90;;;;;;4998665;27;96097;-34
2023/01/13 06:27:13;;;;;;;21.33;6.85;;;8.20;99.90;;;;;;4998533;28;94229;-33
2023/01/13 06:29:40;;;;;;;20.33;6.70;;;8.10;99.90;;;;;;4998466;27;93012;-35
2023/01/13 06:32:11;;;;;;;16.17;6.00;;;8.10;99.90;;;;;;4998149;27;93102;-33
2023/01/13 06:34:39;;;;;;;19.20;6.10;;;8.20;99.90;;;;;;4998095;28;94267;-32
2023/01/13 06:37:05;;;;;;;16.80;5.43;;;8.30;99.90;;;;;;4997917;27;94765;-34
2023/01/13 06:39:31;;;;;;;20.30;5.53;;;8.30;99.90;;;;;;4998706;27;92595;-36
2023/01/13 06:44:42;;;;;;;22.90;6.30;;;8.20;99.90;;;;;;4997205;27;94787;-35
2023/01/13 06:47:08;;;;;;;10.05;5.00;;;8.30;99.90;;;;;;4998102;28;94609;-33
2023/01/13 06:49:34;;;;;;;16.23;5.63;;;8.20;99.90;;;;;;4997984;27;93131;-32
2023/01/13 06:51:59;;;;;;;21.13;4.55;;;8.20;99.90;;;;;;5003027;28;92155;-33
2023/01/13 06:54:25;;;;;;;13.88;4.82;;;8.20;99.90;;;;;;5006033;28;95628;-34
2023/01/13 06:56:51;;;;;;;16.15;4.82;;;8.30;99.90;;;;;;4997178;27;95484;-33
2023/01/13 06:59:17;;;;;;;9.57;4.28;;;8.30;99.90;;;;;;4998907;27;93694;-36
2023/01/13 07:01:43;;;;;;;18.98;3.92;;;8.30;99.90;;;;;;4997977;28;93883;-33
2023/01/13 07:04:08;;;;;;;14.90;4.55;;;8.30;99.90;;;;;;4997332;27;94593;-35
2023/01/13 07:06:34;;;;;;;10.88;4.93;;;8.20;99.90;;;;;;4997603;28;94968;-33
2023/01/13 07:08:59;;;;;;;14.23;4.53;;;8.30;99.90;;;;;;4997586;27;94409;-33
2023/01/13 07:11:25;;;;;;;19.90;4.80;;;8.20;99.90;;;;;;4998900;27;93356;-32
2023/01/13 07:16:35;;;;;;;18.10;4.47;;;8.20;99.90;;;;;;4998001;28;94576;-35
2023/01/13 07:19:00;;;;;;;12.15;4.38;;;8.30;99.90;;;;;;4997604;28;95742;-32
2023/01/13 07:21:26;;;;;;;12.45;3.65;;;8.30;99.90;;;;;;4997755;28;93892;-33
2023/01/13 07:23:52;;;;;;;9.13;3.63;;;8.30;99.90;;;;;;4997319;27;94131;-32
2023/01/13 07:26:17;;;;;;;12.13;3.15;;;8.30;99.90;;;;;;4997153;28;94703;-32
2023/01/13 07:28:43;;;;;;;12.00;4.10;;;8.30;99.90;;;;;;4997992;27;94234;-32
2023/01/13 07:31:18;;;;;;;12.10;4.25;;;8.30;99.90;;;;;;4999371;27;93472;-34
2023/01/13 07:33:44;;;;;;;15.10;3.83;;;8.30;99.90;;;;;;5008003;28;95140;-33
2023/01/13 07:36:10;;;;;;;16.40;4.82;;;8.20;99.90;;;;;;4997808;27;95268;-32
2023/01/13 07:38:37;;;;;;;14.02;3.70;;;8.20;99.90;;;;;;4996390;28;93093;-36
2023/01/13 07:43:30;;;;;;;24.10;5.32;;;8.10;99.90;;;;;;4997356;28;94435;-33
2023/01/13 07:43:49;;;;;;;13.95;5.00;;;8.10;99.90;;;;;;5015621;28;96615;-32
2023/01/13 07:46:14;;;;;;;19.20;4.90;;;8.10;99.90;;;;;;5023143;27;95547;-33
2023/01/13 07:48:40;;;;;;;15.85;4.13;;;8.10;99.90;;;;;;5016788;28;93059;-33
2023/01/13 07:51:08;;;;;;;19.33;4.95;;;8.20;99.90;;;;;;5022033;27;93429;-34
2023/01/13 07:53:34;;;;;;;16.45;4.38;;;8.20;99.90;;;;;;5021933;27;94750;-33
2023/01/13 07:56:01;;;;;;;13.07;4.90;;;8.20;99.90;;;;;;5021708;27;95492;-34
2023/01/13 07:58:28;;;;;;;8.77;4.00;;;8.20;99.90;;;;;;5024812;27;93340;-33
2023/01/13 08:00:54;;;;;;;17.13;5.25;;;8.20;99.90;;;;;;5020413;27;92660;-32
2023/01/13 08:03:20;;;;;;;28.63;4.47;;;8.10;99.90;;;;;;5024409;27;94539;-34
2023/01/13 08:05:47;;;;;;;13.80;4.13;;;8.10;99.90;;;;;;5020629;27;94973;-34
2023/01/13 08:08:12;;;;;;;18.52;5.15;;;8.10;99.90;;;;;;5022981;27;93585;-32
2023/01/13 08:10:38;;;;;;;15.70;4.82;;;8.10;99.90;;;;;;5021331;27;94314;-32
2023/01/13 08:13:16;;;;;;;10.00;3.90;;;8.10;99.90;;;;;;5020112;27;94549;-32
2023/01/13 08:15:42;;;;;;;;;;;8.10;99.90;;;;;;5001551;27;94711;-35
2023/01/13 08:18:08;;;;;;;12.20;3.63;;;8.00;99.90;;;;;;4998532;28;92194;-33
2023/01/13 08:20:34;;;;;;;13.90;4.82;;;8.00;99.90;;;;;;4997119;27;94256;-33
2023/01/13 08:22:59;;;;;;;18.88;6.88;;;8.00;99.90;;;;;;4996000;27;94709;-36
2023/01/13 08:25:27;;;;;;;13.65;4.13;;;8.00;99.90;;;;;;4996718;27;93595;-33
2023/01/13 08:27:53;;;;;;;13.05;5.50;;;7.90;99.90;;;;;;4996930;27;92105;-35
2023/01/13 08:30:18;;;;;;;12.30;4.53;;;7.80;99.90;;;;;;4996446;28;93518;-33
2023/01/13 08:32:49;;;;;;;16.42;3.45;;;7.80;99.90;;;;;;4997189;27;95628;-31
2023/01/13 08:35:16;;;;;;;16.98;4.32;;;7.90;99.90;;;;;;5008787;28;95435;-32
2023/01/13 08:37:43;;;;;;;12.20;5.25;;;7.90;99.90;;;;;;4999632;27;94634;-35
2023/01/13 08:40:09;;;;;;;14.07;5.00;;;7.90;99.90;;;;;;5017340;27;93541;-32
2023/01/13 08:42:35;;;;;;;12.27;5.30;;;7.80;99.90;;;;;;5017649;27;96045;-37
2023/01/13 08:45:01;;;;;;;12.68;4.40;;;7.80;99.90;;;;;;5017256;27;94533;-33
2023/01/13 08:47:27;;;;;;;12.38;5.90;;;7.90;99.90;;;;;;5017093;27;94137;-34
2023/01/13 08:49:52;;;;;;;15.38;3.75;;;7.80;99.90;;;;;;5013830;28;92330;-32
2023/01/13 08:52:19;;;;;;;15.10;5.35;;;7.90;99.90;;;;;;5013948;28;94680;-34
2023/01/13 08:54:46;;;;;;;22.40;6.18;;;7.80;99.90;;;;;;5012553;28;94424;-33
2023/01/13 08:57:12;;;;;;;16.17;5.70;;;7.90;99.90;;;;;;5012881;28;95065;-32
2023/01/13 08:59:37;;;;;;;17.58;4.32;;;7.90;99.90;;;;;;5011912;28;92956;-33
2023/01/13 09:02:11;;;;;;;20.15;5.78;;;7.80;99.90;;;;;;5013050;28;95281;-34
2023/01/13 09:04:37;;;;;;;15.60;5.38;;;7.80;99.90;;;;;;5012243;28;94601;-33
2023/01/13 09:07:03;;;;;;;20.13;5.43;;;7.80;99.90;;;;;;5016467;27;92151;-33
2023/01/13 09:09:28;;;;;;;14.13;4.90;;;7.90;99.90;;;;;;5015875;27;93715;-34
2023/01/13 09:14:39;;;;;;;13.18;5.50;;;7.80;99.90;;;;;;4994194;27;94962;-32
2023/01/13 09:17:06;;;;;;;11.57;4.53;;;7.80;99.90;;;;;;4993846;28;93477;-34
2023/01/13 09:19:31;;;;;;;21.00;5.55;;;7.80;99.90;;;;;;5000859;28;93357;-34
2023/01/13 09:21:57;;;;;;;22.30;5.07;;;7.90;99.90;;;;;;5006248;27;96577;-33
2023/01/13 09:24:23;;;;;;;32.28;5.55;;;7.90;99.90;;;;;;5012552;27;95114;-32
2023/01/13 09:26:49;;;;;;;18.35;4.90;;;7.90;99.90;;;;;;5016666;27;92597;-32
2023/01/13 09:29:15;;;;;;;15.45;4.97;;;7.90;99.90;;;;;;5029180;27;93847;-32
2023/01/13 09:31:41;;;;;;;19.70;5.40;;;7.90;99.90;;;;;;5016642;28;94814;-32
2023/01/13 09:36:56;;;;;;;25.58;6.40;;;7.90;99.90;;;;;;5023318;27;94589;-33
2023/01/13 09:39:22;;;;;;;14.75;5.18;;;8.00;99.90;;;;;;5016339;28;91949;-35
2023/01/13 09:44:44;;;;;;;20.42;5.05;;;8.00;99.90;;;;;;5028189;27;94617;-33
2023/01/13 09:47:34;;;;;;;11.57;3.78;;;8.10;99.90;;;;;;5023111;27;94143;-33
2023/01/13 09:50:23;;;;;;;17.83;5.32;;;8.10;99.90;;;;;;5012216;27;94728;-35
2023/01/13 09:52:48;;;;;;;23.77;6.07;;;8.20;99.90;;;;;;5015747;27;95730;-33
2023/01/13 09:55:17;;;;;;;20.88;5.93;;;8.10;99.90;;;;;;5023998;27;95564;-33
2023/01/13 09:57:43;;;;;;;9.73;3.75;;;8.10;99.90;;;;;;5026218;27;92184;-35
2023/01/13 10:00:27;;;;;;;16.85;4.50;;;8.20;99.90;;;;;;5000573;28;94789;-33
2023/01/13 10:03:16;;;;;;;13.27;5.05;;;8.20;99.90;;;;;;5015216;28;94790;-35
2023/01/13 10:05:49;;;;;;;11.45;3.88;;;8.20;99.90;;;;;;5014127;28;94573;-33
2023/01/13 10:08:25;;;;;;;16.52;4.97;;;8.20;99.90;;;;;;5015398;28;94178;-33
2023/01/13 10:10:55;;;;;;;11.75;5.22;;;8.20;99.90;;;;;;5014729;28;95097;-33
2023/01/13 10:13:27;;;;;;;20.30;5.47;;;8.20;99.90;;;;;;5015048;28;97409;-32
2023/01/13 10:16:11;;;;;;;18.00;6.07;;;8.30;99.90;;;;;;5014023;28;95464;-34
2023/01/13 10:18:59;;;;;;;20.55;6.30;;;8.30;99.90;;;;;;5015731;28;94148;-34
2023/01/13 10:21:31;;;;;;;21.40;4.93;;;8.20;99.90;;;;;;5009675;27;92877;-32
2023/01/13 10:24:19;;;;;;;23.48;5.03;;;8.10;99.90;;;;;;5026335;27;95498;-33
2023/01/13 10:27:06;;;;;;;19.58;5.50;;;8.10;99.90;;;;;;5021931;27;94496;-32
2023/01/13 10:29:33;;;;;;;20.33;5.95;;;8.10;99.90;;;;;;5025291;27;94035;-35
2023/01/13 10:31:59;;;;;;;11.25;4.72;;;8.10;99.90;;;;;;5023350;27;93383;-32
2023/01/13 10:34:26;;;;;;;25.70;6.40;;;8.20;99.90;;;;;;5027068;27;94395;-34
2023/01/13 10:37:15;;;;;;;13.05;4.53;;;8.30;99.90;;;;;;5021702;27;94784;-35
2023/01/13 10:39:44;;;;;;;17.92;4.90;;;8.30;99.90;;;;;;5017383;27;94574;-32
2023/01/13 10:42:15;;;;;;;15.02;5.20;;;8.20;99.90;;;;;;5020677;27;94888;-35
2023/01/13 10:44:47;;;;;;;17.95;6.13;;;8.30;99.90;;;;;;5015976;27;95395;-33
2023/01/13 10:47:31;;;;;;;20.33;5.57;;;8.30;99.90;;;;;;5022927;27;96599;-33
2023/01/13 10:50:12;;;;;;;8.77;5.10;;;8.30;99.90;;;;;;5025546;27;94381;-34
2023/01/13 10:52:59;;;;;;;14.80;5.38;;;8.30;99.90;;;;;;5024208;27;93142;-34
2023/01/13 10:55:32;;;;;;;20.40;5.13;;;8.30;99.90;;;;;;5021325;27;94819;-33
2023/01/13 10:58:19;;;;;;;14.10;5.55;;;8.20;99.90;;;;;;5026861;27;94764;-32
2023/01/13 11:00:45;;;;;;;21.38;5.03;;;8.20;99.90;;;;;;5003932;28;92565;-34
2023/01/13 11:03:22;;;;;;;19.25;5.20;;;8.20;99.90;;;;;;5021793;27;93627;-33
2023/01/13 11:05:53;;;;;;;19.53;6.50;;;8.20;99.90;;;;;;5012483;27;93855;-35
2023/01/13 11:08:22;;;;;;;19.88;5.88;;;8.20;99.90;;;;;;5014632;28;95496;-35
2023/01/13 11:10:50;;;;;;;11.45;4.43;;;8.30;99.90;;;;;;5013659;28;93217;-31
2023/01/13 11:13:27;;;;;;;23.17;6.53;;;8.30;99.90;;;;;;5015220;28;93314;-34
2023/01/13 11:16:11;;;;;;;18.42;5.18;;;8.20;99.90;;;;;;5013504;28;96266;-34
2023/01/13 11:18:50;;;;;;;17.02;5.72;;;8.10;99.90;;;;;;5009289;27;94351;-35
2023/01/13 11:21:32;;;;;;;17.65;5.53;;;8.10;99.90;;;;;;5017718;27;92710;-33
2023/01/13 11:24:25;;;;;;;18.27;6.07;;;8.20;99.90;;;;;;5017438;27;93830;-33
2023/01/13 11:26:58;;;;;;;19.35;5.70;;;8.20;99.90;;;;;;5006276;27;95670;-33
2023/01/13 11:29:37;;;;;;;19.85;5.82;;;8.20;99.90;;;;;;5018512;27;94695;-32
2023/01/13 11:32:13;;;;;;;29.75;6.40;;;8.20;99.90;;;;;;5017188;27;94519;-32
2023/01/13 11:34:41;;;;;;;22.23;6.63;;;8.30;99.90;;;;;;5018355;27;93659;-35
2023/01/13 11:37:16;;;;;;;17.10;6.07;;;8.30;99.90;;;;;;5018163;27;95079;-32
2023/01/13 11:39:56;;;;;;;15.90;5.35;;;8.30;99.90;;;;;;5006621;27;93935;-32
2023/01/13 11:42:32;;;;;;;16.38;6.03;;;8.30;99.90;;;;;;5017601;27;93863;-33
2023/01/13 11:45:01;;;;;;;17.45;4.82;;;8.30;99.90;;;;;;5018925;27;93248;-32
2023/01/13 11:47:27;;;;;;;15.45;6.18;;;8.30;99.90;;;;;;5017982;27;94751;-33
2023/01/13 11:49:53;;;;;;;14.55;5.53;;;8.30;99.90;;;;;;5020137;27;94682;-33
2023/01/13 11:52:22;;;;;;;26.30;5.70;;;8.30;99.90;;;;;;5019021;27;93950;-31
2023/01/13 11:54:55;;;;;;;16.13;5.90;;;8.20;99.90;;;;;;5018323;27;92171;-34
2023/01/13 11:57:32;;;;;;;20.50;5.97;;;8.30;99.90;;;;;;5017673;27;96602;-33
2023/01/13 12:00:14;;;;;;;23.52;6.57;;;8.30;99.90;;;;;;5000225;27;95257;-32
2023/01/13 12:03:15;;;;;;;15.52;5.65;;;8.30;99.90;;;;;;5018935;27;92130;-32
2023/01/13 12:06:01;;;;;;;17.23;5.45;;;8.40;99.90;;;;;;5005309;27;94046;-36
2023/01/13 12:08:45;;;;;;;10.93;4.75;;;8.40;99.90;;;;;;5019120;27;95050;-35
2023/01/13 12:11:18;;;;;;;19.08;4.18;;;8.40;99.90;;;;;;4999515;28;93292;-32
2023/01/13 12:13:43;;;;;;;19.38;4.72;;;8.40;99.90;;;;;;5018496;27;92547;-32
2023/01/13 12:16:26;;;;;;;25.15;6.05;;;8.40;99.90;;;;;;4998816;27;93720;-32
2023/01/13 12:19:10;;;;;;;12.98;4.60;;;8.30;99.90;;;;;;4996390;27;94598;-34
2023/01/13 12:21:58;;;;;;;22.85;5.63;;;8.30;99.90;;;;;;4996064;28;94493;-36
2023/01/13 12:24:32;;;;;;;18.17;5.85;;;8.30;99.90;;;;;;5009866;27;95585;-35
2023/01/13 12:27:04;;;;;;;17.80;5.18;;;8.40;99.90;;;;;;4978490;28;92864;-33
2023/01/13 12:29:33;;;;;;;20.23;5.75;;;8.30;99.90;;;;;;4996588;27;94771;-33
2023/01/13 12:32:03;;;;;;;20.70;5.90;;;8.30;99.90;;;;;;4996655;28;94866;-35
2023/01/13 12:34:32;;;;;;;23.45;6.03;;;8.30;99.90;;;;;;4996812;27;93353;-33
2023/01/13 12:37:16;;;;;;;20.63;6.05;;;8.30;99.90;;;;;;4996510;27;92128;-33
2023/01/13 12:40:02;;;;;;;17.98;5.70;;;8.30;99.90;;;;;;4995862;27;94101;-34
2023/01/13 12:45:32;;;;;;;10.15;3.35;;;8.40;99.90;;;;;;4996869;27;93579;-34
2023/01/13 12:47:59;;;;;;;13.45;4.95;;;8.50;99.90;;;;;;4996197;27;94145;-32
2023/01/13 12:50:25;;;;;;;15.82;4.63;;;8.50;99.90;;;;;;4997840;28;96030;-34
2023/01/13 12:52:53;;;;;;;17.50;3.95;;;8.50;99.90;;;;;;5014588;27;95524;-33
2023/01/13 12:55:20;;;;;;;13.27;5.72;;;8.50;99.90;;;;;;5020445;27;93343;-32
2023/01/13 12:58:14;;;;;;;14.27;4.63;;;8.50;99.90;;;;;;5021665;27;92848;-36
2023/01/13 13:00:39;;;;;;;17.38;4.70;;;8.50;99.90;;;;;;5016960;28;92883;-37
2023/01/13 13:03:12;;;;;;;14.90;4.63;;;8.50;99.90;;;;;;5024497;27;94667;-34
2023/01/13 13:05:59;;;;;;;17.35;4.05;;;8.60;99.90;;;;;;5017096;27;93306;-33
2023/01/13 13:08:44;;;;;;;14.48;4.35;;;8.60;99.90;;;;;;5017440;28;91256;-32
2023/01/13 13:13:57;;;;;;;12.38;3.75;;;8.60;99.90;;;;;;5016680;28;95518;-32
2023/01/13 13:16:26;;;;;;;13.20;3.72;;;8.60;99.90;;;;;;5027362;27;95303;-34
2023/01/13 13:19:16;;;;;;;6.75;3.60;;;8.60;99.90;;;;;;5006220;28;94743;-33
2023/01/13 13:22:13;;;;;;;17.05;4.30;;;8.80;99.90;;;;;;5017044;28;94741;-33
2023/01/13 13:25:01;;;;;;;16.08;3.55;;;8.70;99.90;;;;;;5018852;27;93800;-33
2023/01/13 13:27:30;;;;;;;14.38;4.40;;;8.70;99.90;;;;;;5022968;27;93376;-33
2023/01/13 13:30:00;;;;;;;;;;;8.70;99.90;;;;;;5020567;27;92701;-32
2023/01/13 13:32:35;;;;;;;10.75;3.88;;;8.70;99.90;;;;;;5021194;27;94669;-33
2023/01/13 13:35:21;;;;;;;16.20;3.67;;;8.70;99.90;;;;;;5015672;28;94465;-32
2023/01/13 13:46:46;;;;;;;9.98;3.20;;;8.70;99.90;;;;;;5036362;27;95866;-34
2023/01/13 13:49:13;;;;;;;11.68;3.33;;;8.90;99.90;;;;;;5037292;27;93798;-33
2023/01/13 13:51:48;;;;;;;9.60;3.97;;;8.90;99.90;;;;;;5036010;27;94236;-34
2023/01/13 13:54:20;;;;;;;9.57;3.72;;;8.90;99.90;;;;;;5027601;27;95117;-33
2023/01/13 13:56:47;;;;;;;9.75;3.05;;;8.90;99.90;;;;;;5032415;27;94263;-33
2023/01/13 13:59:20;;;;;;;6.90;2.53;;;8.90;99.90;;;;;;5037425;27;93582;-32
2023/01/13 14:01:59;;;;;;;12.00;3.80;;;9.00;99.90;;;;;;5037132;27;94078;-35
2023/01/13 14:04:26;;;;;;;6.03;2.75;;;9.00;99.90;;;;;;5036284;27;94628;-31
2023/01/13 14:07:00;;;;;;;5.53;2.42;;;9.00;99.90;;;;;;5035887;27;94702;-34